sensor_id;sensor_type;location;lat;lon;timestamp;P1;durP1;ratioP1;P2;durP2;ratioP2
55869;SDS011;41790;50.940;4.560;2024-02-15T00:01:23;2.63;;;1.13;;
55869;SDS011;41790;50.940;4.560;2024-02-15T00:03:48;1.42;;;1.17;;
55869;SDS011;41790;50.940;4.560;2024-02-15T00:06:15;2.03;;;1.15;;
55869;SDS011;41790;50.940;4.560;2024-02-15T00:08:40;1.90;;;0.98;;
55869;SDS011;41790;50.940;4.560;2024-02-15T00:11:06;1.38;;;1.00;;
55869;SDS011;41790;50.940;4.560;2024-02-15T00:13:34;1.90;;;1.25;;
55869;SDS011;41790;50.940;4.560;2024-02-15T00:16:01;1.58;;;1.05;;
55869;SDS011;41790;50.940;4.560;2024-02-15T00:18:27;1.08;;;0.98;;
55869;SDS011;41790;50.940;4.560;2024-02-15T00:20:52;1.60;;;1.00;;
55869;SDS011;41790;50.940;4.560;2024-02-15T00:23:19;2.78;;;1.27;;
55869;SDS011;41790;50.940;4.560;2024-02-15T00:25:45;2.45;;;1.20;;
55869;SDS011;41790;50.940;4.560;2024-02-15T00:28:11;2.17;;;1.33;;
55869;SDS011;41790;50.940;4.560;2024-02-15T00:30:37;3.47;;;1.20;;
55869;SDS011;41790;50.940;4.560;2024-02-15T00:33:03;1.80;;;0.98;;
55869;SDS011;41790;50.940;4.560;2024-02-15T00:35:29;1.50;;;1.13;;
55869;SDS011;41790;50.940;4.560;2024-02-15T00:37:55;1.95;;;0.98;;
55869;SDS011;41790;50.940;4.560;2024-02-15T00:40:20;2.35;;;1.15;;
55869;SDS011;41790;50.940;4.560;2024-02-15T00:42:46;1.50;;;1.20;;
55869;SDS011;41790;50.940;4.560;2024-02-15T00:45:12;3.63;;;1.17;;
55869;SDS011;41790;50.940;4.560;2024-02-15T00:47:38;1.52;;;0.93;;
55869;SDS011;41790;50.940;4.560;2024-02-15T00:50:05;1.20;;;1.02;;
55869;SDS011;41790;50.940;4.560;2024-02-15T00:52:31;1.33;;;1.10;;
55869;SDS011;41790;50.940;4.560;2024-02-15T00:54:57;1.42;;;0.98;;
55869;SDS011;41790;50.940;4.560;2024-02-15T00:57:22;2.70;;;1.08;;
55869;SDS011;41790;50.940;4.560;2024-02-15T00:59:48;1.50;;;0.93;;
55869;SDS011;41790;50.940;4.560;2024-02-15T01:02:14;1.58;;;1.23;;
55869;SDS011;41790;50.940;4.560;2024-02-15T01:04:40;1.52;;;0.90;;
55869;SDS011;41790;50.940;4.560;2024-02-15T01:07:07;2.53;;;1.38;;
55869;SDS011;41790;50.940;4.560;2024-02-15T01:09:33;2.05;;;1.10;;
55869;SDS011;41790;50.940;4.560;2024-02-15T01:11:59;1.65;;;1.30;;
55869;SDS011;41790;50.940;4.560;2024-02-15T01:14:24;2.80;;;0.75;;
55869;SDS011;41790;50.940;4.560;2024-02-15T01:16:54;1.30;;;0.95;;
55869;SDS011;41790;50.940;4.560;2024-02-15T01:19:20;0.80;;;0.80;;
55869;SDS011;41790;50.940;4.560;2024-02-15T01:21:46;1.77;;;1.02;;
55869;SDS011;41790;50.940;4.560;2024-02-15T01:24:12;0.80;;;0.77;;
55869;SDS011;41790;50.940;4.560;2024-02-15T01:26:37;1.52;;;1.30;;
55869;SDS011;41790;50.940;4.560;2024-02-15T01:29:06;3.65;;;1.20;;
55869;SDS011;41790;50.940;4.560;2024-02-15T01:31:35;1.33;;;0.98;;
55869;SDS011;41790;50.940;4.560;2024-02-15T01:34:01;1.35;;;1.02;;
55869;SDS011;41790;50.940;4.560;2024-02-15T01:36:43;1.38;;;1.10;;
55869;SDS011;41790;50.940;4.560;2024-02-15T01:39:31;1.17;;;1.08;;
55869;SDS011;41790;50.940;4.560;2024-02-15T01:41:57;2.70;;;1.20;;
55869;SDS011;41790;50.940;4.560;2024-02-15T01:44:23;1.52;;;1.00;;
55869;SDS011;41790;50.940;4.560;2024-02-15T01:46:49;3.13;;;1.20;;
55869;SDS011;41790;50.940;4.560;2024-02-15T01:49:20;0.90;;;0.68;;
55869;SDS011;41790;50.940;4.560;2024-02-15T01:51:47;1.80;;;0.85;;
55869;SDS011;41790;50.940;4.560;2024-02-15T01:54:17;1.50;;;0.90;;
55869;SDS011;41790;50.940;4.560;2024-02-15T01:56:43;1.40;;;0.90;;
55869;SDS011;41790;50.940;4.560;2024-02-15T01:59:10;1.90;;;1.00;;
55869;SDS011;41790;50.940;4.560;2024-02-15T02:01:39;2.38;;;0.88;;
55869;SDS011;41790;50.940;4.560;2024-02-15T02:04:07;2.38;;;0.80;;
55869;SDS011;41790;50.940;4.560;2024-02-15T02:06:33;2.13;;;0.75;;
55869;SDS011;41790;50.940;4.560;2024-02-15T02:08:59;1.15;;;0.98;;
55869;SDS011;41790;50.940;4.560;2024-02-15T02:11:27;3.45;;;0.80;;
55869;SDS011;41790;50.940;4.560;2024-02-15T02:13:54;1.52;;;0.93;;
55869;SDS011;41790;50.940;4.560;2024-02-15T02:16:24;1.05;;;0.80;;
55869;SDS011;41790;50.940;4.560;2024-02-15T02:18:57;1.42;;;0.82;;
55869;SDS011;41790;50.940;4.560;2024-02-15T02:21:23;2.30;;;1.05;;
55869;SDS011;41790;50.940;4.560;2024-02-15T02:23:55;1.52;;;0.73;;
55869;SDS011;41790;50.940;4.560;2024-02-15T02:26:22;1.80;;;0.90;;
55869;SDS011;41790;50.940;4.560;2024-02-15T02:28:48;1.75;;;1.10;;
55869;SDS011;41790;50.940;4.560;2024-02-15T02:31:15;0.73;;;0.63;;
55869;SDS011;41790;50.940;4.560;2024-02-15T02:33:47;6.22;;;1.00;;
55869;SDS011;41790;50.940;4.560;2024-02-15T02:36:16;1.08;;;0.63;;
55869;SDS011;41790;50.940;4.560;2024-02-15T02:38:43;1.08;;;1.00;;
55869;SDS011;41790;50.940;4.560;2024-02-15T02:41:10;0.68;;;0.65;;
55869;SDS011;41790;50.940;4.560;2024-02-15T02:43:37;1.27;;;0.85;;
55869;SDS011;41790;50.940;4.560;2024-02-15T02:46:06;1.42;;;0.77;;
55869;SDS011;41790;50.940;4.560;2024-02-15T02:48:35;1.35;;;0.80;;
55869;SDS011;41790;50.940;4.560;2024-02-15T02:51:01;1.35;;;0.80;;
55869;SDS011;41790;50.940;4.560;2024-02-15T02:53:27;1.63;;;0.90;;
55869;SDS011;41790;50.940;4.560;2024-02-15T02:55:56;0.90;;;0.80;;
55869;SDS011;41790;50.940;4.560;2024-02-15T02:58:22;0.90;;;0.75;;
55869;SDS011;41790;50.940;4.560;2024-02-15T03:00:48;0.95;;;0.85;;
55869;SDS011;41790;50.940;4.560;2024-02-15T03:03:15;0.85;;;0.68;;
55869;SDS011;41790;50.940;4.560;2024-02-15T03:05:41;2.80;;;0.93;;
55869;SDS011;41790;50.940;4.560;2024-02-15T03:08:13;1.35;;;0.75;;
55869;SDS011;41790;50.940;4.560;2024-02-15T03:10:39;0.63;;;0.63;;
55869;SDS011;41790;50.940;4.560;2024-02-15T03:13:05;1.10;;;0.75;;
55869;SDS011;41790;50.940;4.560;2024-02-15T03:15:32;1.17;;;0.88;;
55869;SDS011;41790;50.940;4.560;2024-02-15T03:17:59;1.00;;;0.70;;
55869;SDS011;41790;50.940;4.560;2024-02-15T03:20:25;1.83;;;0.80;;
55869;SDS011;41790;50.940;4.560;2024-02-15T03:22:54;1.13;;;0.88;;
55869;SDS011;41790;50.940;4.560;2024-02-15T03:25:21;1.38;;;0.70;;
55869;SDS011;41790;50.940;4.560;2024-02-15T03:27:51;1.85;;;0.90;;
55869;SDS011;41790;50.940;4.560;2024-02-15T03:30:18;1.13;;;0.65;;
55869;SDS011;41790;50.940;4.560;2024-02-15T03:32:47;1.30;;;1.00;;
55869;SDS011;41790;50.940;4.560;2024-02-15T03:35:16;0.80;;;0.77;;
55869;SDS011;41790;50.940;4.560;2024-02-15T03:37:43;1.17;;;1.02;;
55869;SDS011;41790;50.940;4.560;2024-02-15T03:40:09;2.47;;;0.98;;
55869;SDS011;41790;50.940;4.560;2024-02-15T03:42:35;1.52;;;0.95;;
55869;SDS011;41790;50.940;4.560;2024-02-15T03:45:04;1.63;;;0.90;;
55869;SDS011;41790;50.940;4.560;2024-02-15T03:47:34;1.25;;;0.88;;
55869;SDS011;41790;50.940;4.560;2024-02-15T03:50:06;1.50;;;0.70;;
55869;SDS011;41790;50.940;4.560;2024-02-15T03:52:34;2.75;;;0.80;;
55869;SDS011;41790;50.940;4.560;2024-02-15T03:55:00;0.75;;;0.70;;
55869;SDS011;41790;50.940;4.560;2024-02-15T03:57:27;0.80;;;0.80;;
55869;SDS011;41790;50.940;4.560;2024-02-15T03:59:53;2.85;;;0.90;;
55869;SDS011;41790;50.940;4.560;2024-02-15T04:02:22;1.27;;;0.80;;
55869;SDS011;41790;50.940;4.560;2024-02-15T04:04:51;0.80;;;0.75;;
55869;SDS011;41790;50.940;4.560;2024-02-15T04:07:20;1.45;;;0.88;;
55869;SDS011;41790;50.940;4.560;2024-02-15T04:09:47;1.30;;;0.80;;
55869;SDS011;41790;50.940;4.560;2024-02-15T04:12:13;2.25;;;0.75;;
55869;SDS011;41790;50.940;4.560;2024-02-15T04:14:40;0.75;;;0.75;;
55869;SDS011;41790;50.940;4.560;2024-02-15T04:17:06;1.10;;;0.98;;
55869;SDS011;41790;50.940;4.560;2024-02-15T04:19:33;0.55;;;0.55;;
55869;SDS011;41790;50.940;4.560;2024-02-15T04:21:59;1.15;;;1.00;;
55869;SDS011;41790;50.940;4.560;2024-02-15T04:24:26;1.15;;;0.75;;
55869;SDS011;41790;50.940;4.560;2024-02-15T04:26:52;1.58;;;0.75;;
55869;SDS011;41790;50.940;4.560;2024-02-15T04:29:18;1.30;;;0.75;;
55869;SDS011;41790;50.940;4.560;2024-02-15T04:31:45;2.13;;;0.90;;
55869;SDS011;41790;50.940;4.560;2024-02-15T04:34:17;0.80;;;0.70;;
55869;SDS011;41790;50.940;4.560;2024-02-15T04:36:45;1.65;;;0.80;;
55869;SDS011;41790;50.940;4.560;2024-02-15T04:39:16;1.02;;;0.60;;
55869;SDS011;41790;50.940;4.560;2024-02-15T04:41:55;0.65;;;0.63;;
55869;SDS011;41790;50.940;4.560;2024-02-15T04:44:21;1.30;;;0.73;;
55869;SDS011;41790;50.940;4.560;2024-02-15T04:46:47;0.65;;;0.65;;
55869;SDS011;41790;50.940;4.560;2024-02-15T04:49:14;0.77;;;0.70;;
55869;SDS011;41790;50.940;4.560;2024-02-15T04:51:43;1.17;;;0.60;;
55869;SDS011;41790;50.940;4.560;2024-02-15T04:54:12;0.90;;;0.70;;
55869;SDS011;41790;50.940;4.560;2024-02-15T04:56:41;2.13;;;0.90;;
55869;SDS011;41790;50.940;4.560;2024-02-15T04:59:08;0.63;;;0.63;;
55869;SDS011;41790;50.940;4.560;2024-02-15T05:01:37;1.48;;;0.90;;
55869;SDS011;41790;50.940;4.560;2024-02-15T05:04:02;0.90;;;0.70;;
55869;SDS011;41790;50.940;4.560;2024-02-15T05:06:32;2.55;;;0.80;;
55869;SDS011;41790;50.940;4.560;2024-02-15T05:08:58;0.93;;;0.60;;
55869;SDS011;41790;50.940;4.560;2024-02-15T05:11:32;0.52;;;0.52;;
55869;SDS011;41790;50.940;4.560;2024-02-15T05:14:04;2.25;;;0.57;;
55869;SDS011;41790;50.940;4.560;2024-02-15T05:16:32;0.95;;;0.82;;
55869;SDS011;41790;50.940;4.560;2024-02-15T05:19:03;0.77;;;0.77;;
55869;SDS011;41790;50.940;4.560;2024-02-15T05:21:30;3.08;;;0.70;;
55869;SDS011;41790;50.940;4.560;2024-02-15T05:23:56;0.60;;;0.60;;
55869;SDS011;41790;50.940;4.560;2024-02-15T05:26:22;0.38;;;0.38;;
55869;SDS011;41790;50.940;4.560;2024-02-15T05:28:49;1.00;;;0.55;;
55869;SDS011;41790;50.940;4.560;2024-02-15T05:31:16;0.75;;;0.75;;
55869;SDS011;41790;50.940;4.560;2024-02-15T05:33:45;0.68;;;0.68;;
55869;SDS011;41790;50.940;4.560;2024-02-15T05:36:19;0.60;;;0.60;;
55869;SDS011;41790;50.940;4.560;2024-02-15T05:38:53;3.10;;;0.95;;
55869;SDS011;41790;50.940;4.560;2024-02-15T05:41:20;0.80;;;0.65;;
55869;SDS011;41790;50.940;4.560;2024-02-15T05:43:46;0.95;;;0.80;;
55869;SDS011;41790;50.940;4.560;2024-02-15T05:46:17;1.42;;;0.60;;
55869;SDS011;41790;50.940;4.560;2024-02-15T05:48:42;0.82;;;0.52;;
55869;SDS011;41790;50.940;4.560;2024-02-15T05:51:08;1.02;;;0.60;;
55869;SDS011;41790;50.940;4.560;2024-02-15T05:53:34;1.33;;;0.70;;
55869;SDS011;41790;50.940;4.560;2024-02-15T05:56:07;0.75;;;0.70;;
55869;SDS011;41790;50.940;4.560;2024-02-15T05:58:34;1.10;;;0.63;;
55869;SDS011;41790;50.940;4.560;2024-02-15T06:01:01;0.77;;;0.68;;
55869;SDS011;41790;50.940;4.560;2024-02-15T06:03:28;0.68;;;0.68;;
55869;SDS011;41790;50.940;4.560;2024-02-15T06:05:54;0.88;;;0.63;;
55869;SDS011;41790;50.940;4.560;2024-02-15T06:08:30;2.83;;;0.75;;
55869;SDS011;41790;50.940;4.560;2024-02-15T06:10:56;1.13;;;0.75;;
55869;SDS011;41790;50.940;4.560;2024-02-15T06:13:22;0.52;;;0.52;;
55869;SDS011;41790;50.940;4.560;2024-02-15T06:15:49;2.60;;;0.80;;
55869;SDS011;41790;50.940;4.560;2024-02-15T06:18:22;0.65;;;0.65;;
55869;SDS011;41790;50.940;4.560;2024-02-15T06:20:53;1.42;;;0.60;;
55869;SDS011;41790;50.940;4.560;2024-02-15T06:23:22;0.88;;;0.75;;
55869;SDS011;41790;50.940;4.560;2024-02-15T06:25:50;0.70;;;0.68;;
55869;SDS011;41790;50.940;4.560;2024-02-15T06:28:23;1.20;;;0.82;;
55869;SDS011;41790;50.940;4.560;2024-02-15T06:31:07;0.88;;;0.70;;
55869;SDS011;41790;50.940;4.560;2024-02-15T06:33:52;1.27;;;0.73;;
55869;SDS011;41790;50.940;4.560;2024-02-15T06:36:40;0.98;;;0.77;;
55869;SDS011;41790;50.940;4.560;2024-02-15T06:39:36;0.55;;;0.55;;
55869;SDS011;41790;50.940;4.560;2024-02-15T06:42:17;2.17;;;0.85;;
55869;SDS011;41790;50.940;4.560;2024-02-15T06:44:46;0.52;;;0.50;;
55869;SDS011;41790;50.940;4.560;2024-02-15T06:47:13;1.25;;;0.75;;
55869;SDS011;41790;50.940;4.560;2024-02-15T06:49:42;0.93;;;0.80;;
55869;SDS011;41790;50.940;4.560;2024-02-15T06:52:09;0.90;;;0.73;;
55869;SDS011;41790;50.940;4.560;2024-02-15T06:54:39;2.05;;;0.80;;
55869;SDS011;41790;50.940;4.560;2024-02-15T06:57:06;0.70;;;0.52;;
55869;SDS011;41790;50.940;4.560;2024-02-15T06:59:32;2.33;;;0.45;;
55869;SDS011;41790;50.940;4.560;2024-02-15T07:01:58;1.35;;;0.70;;
55869;SDS011;41790;50.940;4.560;2024-02-15T07:04:24;0.47;;;0.40;;
55869;SDS011;41790;50.940;4.560;2024-02-15T07:06:51;1.52;;;0.60;;
55869;SDS011;41790;50.940;4.560;2024-02-15T07:09:19;0.73;;;0.55;;
55869;SDS011;41790;50.940;4.560;2024-02-15T07:11:50;1.20;;;0.57;;
55869;SDS011;41790;50.940;4.560;2024-02-15T07:14:18;0.55;;;0.52;;
55869;SDS011;41790;50.940;4.560;2024-02-15T07:16:48;1.42;;;0.52;;
55869;SDS011;41790;50.940;4.560;2024-02-15T07:19:14;0.55;;;0.55;;
55869;SDS011;41790;50.940;4.560;2024-02-15T07:21:41;0.85;;;0.65;;
55869;SDS011;41790;50.940;4.560;2024-02-15T07:24:07;0.52;;;0.50;;
55869;SDS011;41790;50.940;4.560;2024-02-15T07:26:34;0.47;;;0.47;;
55869;SDS011;41790;50.940;4.560;2024-02-15T07:29:01;0.55;;;0.55;;
55869;SDS011;41790;50.940;4.560;2024-02-15T07:31:30;0.65;;;0.50;;
55869;SDS011;41790;50.940;4.560;2024-02-15T07:33:58;0.80;;;0.63;;
55869;SDS011;41790;50.940;4.560;2024-02-15T07:36:24;1.20;;;0.70;;
55869;SDS011;41790;50.940;4.560;2024-02-15T07:38:51;0.70;;;0.52;;
55869;SDS011;41790;50.940;4.560;2024-02-15T07:41:18;0.80;;;0.80;;
55869;SDS011;41790;50.940;4.560;2024-02-15T07:43:47;1.10;;;0.70;;
55869;SDS011;41790;50.940;4.560;2024-02-15T07:46:19;0.77;;;0.57;;
55869;SDS011;41790;50.940;4.560;2024-02-15T07:48:45;1.10;;;0.80;;
55869;SDS011;41790;50.940;4.560;2024-02-15T07:51:15;0.85;;;0.65;;
55869;SDS011;41790;50.940;4.560;2024-02-15T07:53:41;0.55;;;0.55;;
55869;SDS011;41790;50.940;4.560;2024-02-15T07:56:10;1.83;;;0.77;;
55869;SDS011;41790;50.940;4.560;2024-02-15T07:58:42;1.52;;;0.82;;
55869;SDS011;41790;50.940;4.560;2024-02-15T08:01:13;0.35;;;0.35;;
55869;SDS011;41790;50.940;4.560;2024-02-15T08:03:41;0.60;;;0.60;;
55869;SDS011;41790;50.940;4.560;2024-02-15T08:06:10;2.83;;;0.65;;
55869;SDS011;41790;50.940;4.560;2024-02-15T08:08:38;0.88;;;0.77;;
55869;SDS011;41790;50.940;4.560;2024-02-15T08:11:06;1.55;;;0.68;;
55869;SDS011;41790;50.940;4.560;2024-02-15T08:13:40;0.68;;;0.57;;
55869;SDS011;41790;50.940;4.560;2024-02-15T08:16:08;0.63;;;0.52;;
55869;SDS011;41790;50.940;4.560;2024-02-15T08:18:34;0.60;;;0.52;;
55869;SDS011;41790;50.940;4.560;2024-02-15T08:21:00;2.53;;;0.50;;
55869;SDS011;41790;50.940;4.560;2024-02-15T08:23:27;1.42;;;0.77;;
55869;SDS011;41790;50.940;4.560;2024-02-15T08:25:52;1.50;;;0.70;;
55869;SDS011;41790;50.940;4.560;2024-02-15T08:28:18;0.90;;;0.60;;
55869;SDS011;41790;50.940;4.560;2024-02-15T08:30:45;2.42;;;0.60;;
55869;SDS011;41790;50.940;4.560;2024-02-15T08:33:12;2.17;;;0.65;;
55869;SDS011;41790;50.940;4.560;2024-02-15T08:35:38;0.47;;;0.47;;
55869;SDS011;41790;50.940;4.560;2024-02-15T08:38:05;1.38;;;0.73;;
55869;SDS011;41790;50.940;4.560;2024-02-15T08:40:31;0.75;;;0.52;;
55869;SDS011;41790;50.940;4.560;2024-02-15T08:42:57;0.70;;;0.52;;
55869;SDS011;41790;50.940;4.560;2024-02-15T08:45:23;2.28;;;0.63;;
55869;SDS011;41790;50.940;4.560;2024-02-15T08:47:49;3.03;;;0.70;;
55869;SDS011;41790;50.940;4.560;2024-02-15T08:50:18;0.90;;;0.70;;
55869;SDS011;41790;50.940;4.560;2024-02-15T08:52:44;1.05;;;0.68;;
55869;SDS011;41790;50.940;4.560;2024-02-15T08:55:12;0.77;;;0.65;;
55869;SDS011;41790;50.940;4.560;2024-02-15T08:57:39;0.88;;;0.70;;
55869;SDS011;41790;50.940;4.560;2024-02-15T09:00:09;0.82;;;0.57;;
55869;SDS011;41790;50.940;4.560;2024-02-15T09:02:56;1.83;;;0.57;;
55869;SDS011;41790;50.940;4.560;2024-02-15T09:05:22;0.85;;;0.73;;
55869;SDS011;41790;50.940;4.560;2024-02-15T09:07:49;0.75;;;0.57;;
55869;SDS011;41790;50.940;4.560;2024-02-15T09:10:18;0.47;;;0.47;;
55869;SDS011;41790;50.940;4.560;2024-02-15T09:12:44;1.38;;;0.63;;
55869;SDS011;41790;50.940;4.560;2024-02-15T09:15:13;0.75;;;0.68;;
55869;SDS011;41790;50.940;4.560;2024-02-15T09:17:40;0.70;;;0.52;;
55869;SDS011;41790;50.940;4.560;2024-02-15T09:22:43;0.52;;;0.50;;
55869;SDS011;41790;50.940;4.560;2024-02-15T09:25:16;0.82;;;0.45;;
55869;SDS011;41790;50.940;4.560;2024-02-15T09:27:43;0.50;;;0.50;;
55869;SDS011;41790;50.940;4.560;2024-02-15T09:30:11;0.55;;;0.45;;
55869;SDS011;41790;50.940;4.560;2024-02-15T09:32:37;0.82;;;0.70;;
55869;SDS011;41790;50.940;4.560;2024-02-15T09:35:07;0.55;;;0.47;;
55869;SDS011;41790;50.940;4.560;2024-02-15T09:37:35;1.02;;;0.57;;
55869;SDS011;41790;50.940;4.560;2024-02-15T09:40:02;0.60;;;0.60;;
55869;SDS011;41790;50.940;4.560;2024-02-15T09:42:30;0.85;;;0.60;;
55869;SDS011;41790;50.940;4.560;2024-02-15T09:44:55;0.60;;;0.43;;
55869;SDS011;41790;50.940;4.560;2024-02-15T09:47:21;1.38;;;0.75;;
55869;SDS011;41790;50.940;4.560;2024-02-15T09:49:49;0.40;;;0.40;;
55869;SDS011;41790;50.940;4.560;2024-02-15T09:52:14;0.93;;;0.60;;
55869;SDS011;41790;50.940;4.560;2024-02-15T09:54:43;0.55;;;0.55;;
55869;SDS011;41790;50.940;4.560;2024-02-15T09:57:09;0.98;;;0.63;;
55869;SDS011;41790;50.940;4.560;2024-02-15T09:59:36;0.55;;;0.55;;
55869;SDS011;41790;50.940;4.560;2024-02-15T10:02:02;0.88;;;0.43;;
55869;SDS011;41790;50.940;4.560;2024-02-15T10:04:28;2.25;;;0.63;;
55869;SDS011;41790;50.940;4.560;2024-02-15T10:06:54;0.55;;;0.55;;
55869;SDS011;41790;50.940;4.560;2024-02-15T10:09:26;1.27;;;0.77;;
55869;SDS011;41790;50.940;4.560;2024-02-15T10:11:56;1.63;;;0.77;;
55869;SDS011;41790;50.940;4.560;2024-02-15T10:14:26;0.55;;;0.47;;
55869;SDS011;41790;50.940;4.560;2024-02-15T10:16:54;0.80;;;0.50;;
55869;SDS011;41790;50.940;4.560;2024-02-15T10:19:20;1.27;;;0.70;;
55869;SDS011;41790;50.940;4.560;2024-02-15T10:21:51;1.23;;;0.80;;
55869;SDS011;41790;50.940;4.560;2024-02-15T10:24:20;0.65;;;0.57;;
55869;SDS011;41790;50.940;4.560;2024-02-15T10:26:50;1.52;;;0.77;;
55869;SDS011;41790;50.940;4.560;2024-02-15T10:29:16;0.70;;;0.60;;
55869;SDS011;41790;50.940;4.560;2024-02-15T10:31:54;0.50;;;0.50;;
55869;SDS011;41790;50.940;4.560;2024-02-15T10:34:21;0.40;;;0.40;;
55869;SDS011;41790;50.940;4.560;2024-02-15T10:36:48;1.10;;;0.70;;
55869;SDS011;41790;50.940;4.560;2024-02-15T10:39:18;0.40;;;0.40;;
55869;SDS011;41790;50.940;4.560;2024-02-15T10:41:49;1.10;;;0.55;;
55869;SDS011;41790;50.940;4.560;2024-02-15T10:44:16;1.05;;;0.55;;
55869;SDS011;41790;50.940;4.560;2024-02-15T10:46:47;0.93;;;0.47;;
55869;SDS011;41790;50.940;4.560;2024-02-15T10:49:19;1.13;;;0.60;;
55869;SDS011;41790;50.940;4.560;2024-02-15T10:51:55;0.77;;;0.50;;
55869;SDS011;41790;50.940;4.560;2024-02-15T10:54:40;1.25;;;0.52;;
55869;SDS011;41790;50.940;4.560;2024-02-15T10:57:10;0.55;;;0.43;;
55869;SDS011;41790;50.940;4.560;2024-02-15T10:59:38;1.05;;;0.55;;
55869;SDS011;41790;50.940;4.560;2024-02-15T11:02:22;0.73;;;0.52;;
55869;SDS011;41790;50.940;4.560;2024-02-15T11:05:01;0.45;;;0.45;;
55869;SDS011;41790;50.940;4.560;2024-02-15T11:07:30;1.17;;;0.77;;
55869;SDS011;41790;50.940;4.560;2024-02-15T11:09:57;0.95;;;0.63;;
55869;SDS011;41790;50.940;4.560;2024-02-15T11:12:24;1.48;;;0.55;;
55869;SDS011;41790;50.940;4.560;2024-02-15T11:14:53;0.45;;;0.40;;
55869;SDS011;41790;50.940;4.560;2024-02-15T11:20:08;0.85;;;0.68;;
55869;SDS011;41790;50.940;4.560;2024-02-15T11:22:36;0.70;;;0.60;;
55869;SDS011;41790;50.940;4.560;2024-02-15T11:25:05;0.80;;;0.60;;
55869;SDS011;41790;50.940;4.560;2024-02-15T11:27:36;0.75;;;0.47;;
55869;SDS011;41790;50.940;4.560;2024-02-15T11:30:03;0.50;;;0.50;;
55869;SDS011;41790;50.940;4.560;2024-02-15T11:35:16;0.80;;;0.70;;
55869;SDS011;41790;50.940;4.560;2024-02-15T11:37:50;3.40;;;1.10;;
55869;SDS011;41790;50.940;4.560;2024-02-15T11:42:52;2.60;;;1.00;;
55869;SDS011;41790;50.940;4.560;2024-02-15T11:45:19;1.45;;;0.85;;
55869;SDS011;41790;50.940;4.560;2024-02-15T11:47:49;9.50;;;1.27;;
55869;SDS011;41790;50.940;4.560;2024-02-15T11:50:20;3.13;;;0.85;;
55869;SDS011;41790;50.940;4.560;2024-02-15T11:52:47;1.95;;;0.90;;
55869;SDS011;41790;50.940;4.560;2024-02-15T11:55:14;4.35;;;1.00;;
55869;SDS011;41790;50.940;4.560;2024-02-15T11:57:56;3.30;;;0.93;;
55869;SDS011;41790;50.940;4.560;2024-02-15T12:00:36;1.52;;;0.68;;
55869;SDS011;41790;50.940;4.560;2024-02-15T12:03:21;1.73;;;0.83;;
55869;SDS011;41790;50.940;4.560;2024-02-15T12:06:05;1.83;;;0.63;;
55869;SDS011;41790;50.940;4.560;2024-02-15T12:08:53;0.95;;;0.60;;
55869;SDS011;41790;50.940;4.560;2024-02-15T12:11:38;1.73;;;1.15;;
55869;SDS011;41790;50.940;4.560;2024-02-15T12:14:23;1.15;;;0.93;;
55869;SDS011;41790;50.940;4.560;2024-02-15T12:19:53;1.75;;;0.90;;
55869;SDS011;41790;50.940;4.560;2024-02-15T12:22:25;2.33;;;0.75;;
55869;SDS011;41790;50.940;4.560;2024-02-15T12:24:58;1.38;;;0.80;;
55869;SDS011;41790;50.940;4.560;2024-02-15T12:27:25;1.02;;;0.80;;
55869;SDS011;41790;50.940;4.560;2024-02-15T12:29:55;1.63;;;0.80;;
55869;SDS011;41790;50.940;4.560;2024-02-15T12:32:22;1.52;;;0.88;;
55869;SDS011;41790;50.940;4.560;2024-02-15T12:34:50;3.05;;;1.17;;
55869;SDS011;41790;50.940;4.560;2024-02-15T12:37:22;4.57;;;1.35;;
55869;SDS011;41790;50.940;4.560;2024-02-15T12:39:49;3.05;;;1.15;;
55869;SDS011;41790;50.940;4.560;2024-02-15T12:42:17;1.35;;;0.60;;
55869;SDS011;41790;50.940;4.560;2024-02-15T12:44:45;1.23;;;0.70;;
55869;SDS011;41790;50.940;4.560;2024-02-15T12:47:21;1.80;;;0.68;;
55869;SDS011;41790;50.940;4.560;2024-02-15T12:55:09;0.90;;;0.52;;
55869;SDS011;41790;50.940;4.560;2024-02-15T12:57:47;1.38;;;0.75;;
55869;SDS011;41790;50.940;4.560;2024-02-15T13:02:53;2.22;;;0.77;;
55869;SDS011;41790;50.940;4.560;2024-02-15T13:05:21;0.52;;;0.50;;
55869;SDS011;41790;50.940;4.560;2024-02-15T13:07:48;0.57;;;0.47;;
55869;SDS011;41790;50.940;4.560;2024-02-15T13:10:15;1.30;;;0.60;;
55869;SDS011;41790;50.940;4.560;2024-02-15T13:12:41;1.73;;;0.60;;
55869;SDS011;41790;50.940;4.560;2024-02-15T13:15:09;0.68;;;0.52;;
55869;SDS011;41790;50.940;4.560;2024-02-15T13:17:58;0.65;;;0.50;;
55869;SDS011;41790;50.940;4.560;2024-02-15T13:20:24;0.73;;;0.50;;
55869;SDS011;41790;50.940;4.560;2024-02-15T13:23:04;0.65;;;0.50;;
55869;SDS011;41790;50.940;4.560;2024-02-15T13:25:37;1.17;;;0.60;;
55869;SDS011;41790;50.940;4.560;2024-02-15T13:28:08;1.38;;;0.70;;
55869;SDS011;41790;50.940;4.560;2024-02-15T13:30:38;0.82;;;0.50;;
55869;SDS011;41790;50.940;4.560;2024-02-15T13:33:04;1.52;;;0.50;;
55869;SDS011;41790;50.940;4.560;2024-02-15T13:35:31;0.43;;;0.40;;
55869;SDS011;41790;50.940;4.560;2024-02-15T13:37:57;1.80;;;0.68;;
55869;SDS011;41790;50.940;4.560;2024-02-15T13:40:23;1.08;;;0.45;;
55869;SDS011;41790;50.940;4.560;2024-02-15T13:42:51;1.00;;;0.60;;
55869;SDS011;41790;50.940;4.560;2024-02-15T13:45:19;0.70;;;0.50;;
55869;SDS011;41790;50.940;4.560;2024-02-15T13:47:47;0.32;;;0.32;;
55869;SDS011;41790;50.940;4.560;2024-02-15T13:50:14;0.65;;;0.50;;
55869;SDS011;41790;50.940;4.560;2024-02-15T13:52:41;0.52;;;0.50;;
55869;SDS011;41790;50.940;4.560;2024-02-15T13:55:09;0.28;;;0.28;;
55869;SDS011;41790;50.940;4.560;2024-02-15T13:57:36;1.30;;;0.60;;
55869;SDS011;41790;50.940;4.560;2024-02-15T14:00:04;0.35;;;0.35;;
55869;SDS011;41790;50.940;4.560;2024-02-15T14:02:31;0.90;;;0.45;;
55869;SDS011;41790;50.940;4.560;2024-02-15T14:04:57;1.13;;;0.50;;
55869;SDS011;41790;50.940;4.560;2024-02-15T14:07:22;0.77;;;0.60;;
55869;SDS011;41790;50.940;4.560;2024-02-15T14:09:49;0.60;;;0.50;;
55869;SDS011;41790;50.940;4.560;2024-02-15T14:12:15;1.45;;;0.50;;
55869;SDS011;41790;50.940;4.560;2024-02-15T14:14:40;0.55;;;0.30;;
55869;SDS011;41790;50.940;4.560;2024-02-15T14:17:08;1.55;;;0.40;;
55869;SDS011;41790;50.940;4.560;2024-02-15T14:19:34;1.17;;;0.93;;
55869;SDS011;41790;50.940;4.560;2024-02-15T14:22:00;0.45;;;0.38;;
55869;SDS011;41790;50.940;4.560;2024-02-15T14:24:26;2.33;;;0.93;;
55869;SDS011;41790;50.940;4.560;2024-02-15T14:26:52;1.33;;;0.50;;
55869;SDS011;41790;50.940;4.560;2024-02-15T14:29:18;1.17;;;0.50;;
55869;SDS011;41790;50.940;4.560;2024-02-15T14:31:52;1.05;;;0.57;;
55869;SDS011;41790;50.940;4.560;2024-02-15T14:34:36;0.63;;;0.50;;
55869;SDS011;41790;50.940;4.560;2024-02-15T14:37:02;0.52;;;0.40;;
55869;SDS011;41790;50.940;4.560;2024-02-15T14:39:31;1.73;;;0.70;;
55869;SDS011;41790;50.940;4.560;2024-02-15T14:41:56;1.95;;;0.57;;
55869;SDS011;41790;50.940;4.560;2024-02-15T14:44:22;2.38;;;0.60;;
55869;SDS011;41790;50.940;4.560;2024-02-15T14:46:48;2.65;;;0.60;;
55869;SDS011;41790;50.940;4.560;2024-02-15T14:49:14;0.85;;;0.75;;
55869;SDS011;41790;50.940;4.560;2024-02-15T14:51:41;0.73;;;0.50;;
55869;SDS011;41790;50.940;4.560;2024-02-15T14:54:07;1.15;;;0.35;;
55869;SDS011;41790;50.940;4.560;2024-02-15T14:56:33;1.40;;;0.65;;
55869;SDS011;41790;50.940;4.560;2024-02-15T14:58:59;1.02;;;0.38;;
55869;SDS011;41790;50.940;4.560;2024-02-15T15:01:25;0.25;;;0.25;;
55869;SDS011;41790;50.940;4.560;2024-02-15T15:03:54;1.05;;;0.50;;
55869;SDS011;41790;50.940;4.560;2024-02-15T15:06:23;0.40;;;0.40;;
55869;SDS011;41790;50.940;4.560;2024-02-15T15:09:07;1.60;;;0.57;;
55869;SDS011;41790;50.940;4.560;2024-02-15T15:11:51;1.50;;;0.75;;
55869;SDS011;41790;50.940;4.560;2024-02-15T15:14:35;0.40;;;0.40;;
55869;SDS011;41790;50.940;4.560;2024-02-15T15:17:03;1.00;;;0.90;;
55869;SDS011;41790;50.940;4.560;2024-02-15T15:19:28;0.73;;;0.50;;